Millway, Pennsylvania
Current Conditions -  °F | °C
As of 8:53 AM on Saturday 22 Nov 2014 (Local Time) from KLNS Reporting Station
Haze Haze  
Wind Chill: 25°   Ceiling: Unl
Heat Index: 25°   Visibility: 6mi
Dew Point: 17°   Wind: 0mph
Humidity: 72%   Direction: NA
Pressure: 30.48"   Gusts: NA
Location:  40.1769°N, 76.295°W
Report Text: KLNS 221353Z 00000KT 6SM HZ CLR M04/M08 A3048 RMK AO2 SLP326 T10391083
Loading
Personal Weather Stations






























Interactive Weather Map New forecast layout! Learn more

10-Day Weather Forecast

Advertisements
Track Severe Weather on mobile